createdAt,value
2023-04-12T00:02:06.698Z,100099.59
2023-04-12T00:04:36.173Z,100110.56
2023-04-12T00:07:06.183Z,100104.94
2023-04-12T00:09:36.567Z,100098.06
2023-04-12T00:12:06.962Z,100088.47
2023-04-12T00:14:35.029Z,100100.31
2023-04-12T00:17:03.137Z,100101.97
2023-04-12T00:19:31.211Z,100101.97
2023-04-12T00:21:59.400Z,100106.75
2023-04-12T00:24:27.850Z,100106.94
2023-04-12T00:26:56.426Z,100107.97
2023-04-12T00:29:26.838Z,100107.16
2023-04-12T00:31:54.931Z,100105.50
2023-04-12T00:34:24.392Z,100107.09
2023-04-12T00:36:52.433Z,100103.97
2023-04-12T00:39:20.508Z,100105.84
2023-04-12T00:41:48.662Z,100109.56
2023-04-12T00:44:18.197Z,100113.03
2023-04-12T00:46:47.902Z,100107.59
2023-04-12T00:49:16.068Z,100103.03
2023-04-12T00:52:04.528Z,100106.56
2023-04-12T00:54:33.411Z,100104.44
2023-04-12T00:57:02.363Z,100103.16
2023-04-12T00:59:30.459Z,100098.97
2023-04-12T01:02:01.059Z,100104.59
2023-04-12T01:04:29.970Z,100098.94
2023-04-12T01:07:10.170Z,100094.31
2023-04-12T01:09:45.082Z,100094.13
2023-04-12T01:12:30.018Z,100088.28
2023-04-12T01:15:02.045Z,100094.03
2023-04-12T01:17:38.127Z,100089.00
2023-04-12T01:20:13.701Z,100081.31
2023-04-12T01:22:53.543Z,100081.31
2023-04-12T01:25:30.582Z,100078.59
2023-04-12T01:28:02.249Z,100083.16
2023-04-12T01:30:30.865Z,100080.69
2023-04-12T01:33:01.023Z,100079.19
2023-04-12T01:35:34.957Z,100077.91
2023-04-12T01:38:04.444Z,100078.28
2023-04-12T01:40:33.446Z,100082.19
2023-04-12T01:43:09.924Z,100077.22
2023-04-12T01:45:38.479Z,100079.84
2023-04-12T01:48:08.956Z,100076.03
2023-04-12T01:50:41.449Z,100075.59
2023-04-12T01:53:12.256Z,100075.13
2023-04-12T01:55:41.319Z,100077.00
2023-04-12T01:58:14.104Z,100072.81
2023-04-12T02:00:44.696Z,100070.13
2023-04-12T02:03:13.993Z,100069.94
2023-04-12T02:05:42.305Z,100054.78
2023-04-12T02:08:10.415Z,100059.16
2023-04-12T02:10:40.484Z,100052.72
2023-04-12T02:13:08.576Z,100061.88
2023-04-12T02:15:38.700Z,100055.59
2023-04-12T02:18:07.650Z,100062.69
2023-04-12T02:20:36.073Z,100056.47
2023-04-12T02:23:04.210Z,100064.56
2023-04-12T02:25:33.565Z,100065.56
2023-04-12T02:28:02.395Z,100067.44
2023-04-12T02:30:30.584Z,100064.28
2023-04-12T02:33:00.267Z,100064.47
2023-04-12T02:35:33.002Z,100063.81
2023-04-12T02:38:08.670Z,100057.81
2023-04-12T02:40:40.887Z,100068.13
2023-04-12T02:43:11.101Z,100068.50
2023-04-12T02:45:43.518Z,100069.28
2023-04-12T02:48:13.584Z,100072.72
2023-04-12T02:50:41.824Z,100070.97
2023-04-12T02:53:17.265Z,100073.59
2023-04-12T02:55:49.939Z,100076.84
2023-04-12T02:58:24.488Z,100070.44
2023-04-12T03:00:54.056Z,100073.78
2023-04-12T03:03:32.118Z,100080.38
2023-04-12T03:06:09.888Z,100083.91
2023-04-12T03:08:39.878Z,100084.94
2023-04-12T03:11:08.287Z,100086.34
2023-04-12T03:13:36.836Z,100082.34
2023-04-12T03:16:21.867Z,100076.31
2023-04-12T03:18:53.809Z,100082.06
2023-04-12T03:21:25.202Z,100080.41
2023-04-12T03:23:54.974Z,100082.88
2023-04-12T03:26:26.668Z,100087.66
2023-04-12T03:29:11.415Z,100087.66
2023-04-12T03:31:41.684Z,100090.16
2023-04-12T03:34:12.035Z,100089.16
2023-04-12T03:36:45.058Z,100089.16
2023-04-12T03:39:22.324Z,100095.38
2023-04-12T03:41:53.333Z,100090.59
2023-04-12T03:44:27.083Z,100100.75
2023-04-12T03:46:57.586Z,100100.56
2023-04-12T03:49:28.867Z,100095.81
2023-04-12T03:51:57.272Z,100092.31
2023-04-12T03:54:26.314Z,100090.25
2023-04-12T03:57:00.033Z,100099.97
2023-04-12T03:59:49.486Z,100099.16
2023-04-12T04:02:22.760Z,100100.84
2023-04-12T04:04:55.236Z,100101.00
2023-04-12T04:07:28.356Z,100108.63
2023-04-12T04:09:57.765Z,100098.53
2023-04-12T04:12:30.798Z,100100.38
2023-04-12T04:14:59.220Z,100108.84
2023-04-12T04:17:32.715Z,100115.63
2023-04-12T04:20:07.091Z,100107.53
2023-04-12T04:22:38.410Z,100109.56
2023-04-12T04:25:07.247Z,100114.13
2023-04-12T04:27:39.087Z,100115.16
2023-04-12T04:30:10.571Z,100109.09
2023-04-12T04:32:44.434Z,100108.75
2023-04-12T04:35:17.017Z,100114.97
2023-04-12T04:38:04.319Z,100114.59
2023-04-12T04:40:33.803Z,100115.06
2023-04-12T04:43:03.421Z,100107.44
2023-04-12T04:45:36.979Z,100110.22
2023-04-12T04:48:05.307Z,100110.94
2023-04-12T04:50:34.821Z,100102.28
2023-04-12T04:53:05.016Z,100107.97
2023-04-12T04:55:34.715Z,100104.50
2023-04-12T04:58:02.940Z,100109.34
2023-04-12T05:00:36.796Z,100112.13
2023-04-12T05:03:05.223Z,100114.03
2023-04-12T05:05:34.896Z,100116.81
2023-04-12T05:08:08.644Z,100114.19
2023-04-12T05:10:37.466Z,100112.38
2023-04-12T05:13:05.745Z,100115.00
2023-04-12T05:15:35.190Z,100111.31
2023-04-12T05:18:03.606Z,100106.81
2023-04-12T05:20:32.005Z,100106.69
2023-04-12T05:23:02.123Z,100114.50
2023-04-12T05:25:30.324Z,100111.44
2023-04-12T05:28:14.366Z,100117.34
2023-04-12T05:30:43.465Z,100113.28
2023-04-12T05:33:13.758Z,100115.00
2023-04-12T05:35:46.421Z,100111.13
2023-04-12T05:38:16.423Z,100111.41
2023-04-12T05:40:47.767Z,100113.16
2023-04-12T05:43:18.298Z,100114.47
2023-04-12T05:45:46.628Z,100114.91
2023-04-12T05:48:14.949Z,100113.72
2023-04-12T05:50:43.093Z,100113.34
2023-04-12T05:53:13.770Z,100113.81
2023-04-12T05:55:43.518Z,100106.13
2023-04-12T05:58:11.932Z,100104.56
2023-04-12T06:00:42.170Z,100109.59
2023-04-12T06:03:10.865Z,100106.28
2023-04-12T06:05:40.028Z,100102.97
2023-04-12T06:08:08.899Z,100096.94
2023-04-12T06:10:37.013Z,100101.13
2023-04-12T06:13:07.389Z,100099.47
2023-04-12T06:15:36.477Z,100106.13
2023-04-12T06:18:04.838Z,100103.84
2023-04-12T06:20:32.954Z,100095.06
2023-04-12T06:23:01.294Z,100098.19
2023-04-12T06:25:29.469Z,100100.28
2023-04-12T06:27:59.155Z,100096.94
2023-04-12T06:30:29.877Z,100096.06
2023-04-12T06:32:58.492Z,100092.94
2023-04-12T06:35:26.884Z,100087.66
2023-04-12T06:37:55.053Z,100089.50
2023-04-12T06:40:23.152Z,100089.84
2023-04-12T06:42:51.244Z,100084.59
2023-04-12T06:45:23.535Z,100085.78
2023-04-12T06:47:54.714Z,100081.53
2023-04-12T06:50:22.841Z,100078.94
2023-04-12T06:52:50.972Z,100083.31
2023-04-12T06:55:19.883Z,100094.75
2023-04-12T06:57:47.929Z,100084.69
2023-04-12T07:00:16.442Z,100082.50
2023-04-12T07:02:44.669Z,100080.38
2023-04-12T07:05:14.896Z,100088.00
2023-04-12T07:07:42.980Z,100083.13
2023-04-12T07:10:11.403Z,100084.47
2023-04-12T07:12:42.040Z,100079.81
2023-04-12T07:15:10.559Z,100085.56
2023-04-12T07:17:40.255Z,100094.03
2023-04-12T07:20:08.719Z,100088.53
2023-04-12T07:22:38.324Z,100080.09
2023-04-12T07:25:10.322Z,100091.28
2023-04-12T07:27:38.481Z,100086.59
2023-04-12T07:30:07.043Z,100091.53
2023-04-12T07:32:35.280Z,100084.09
2023-04-12T07:35:03.696Z,100079.16
2023-04-12T07:37:31.809Z,100082.56
2023-04-12T07:40:02.087Z,100073.38
2023-04-12T07:42:30.581Z,100077.41
2023-04-12T07:44:58.950Z,100072.03
2023-04-12T07:47:27.159Z,100067.47
2023-04-12T07:49:55.372Z,100074.00
2023-04-12T07:52:23.372Z,100075.53
2023-04-12T07:54:51.407Z,100065.03
2023-04-12T07:57:21.465Z,100068.94
2023-04-12T07:59:49.549Z,100074.03
2023-04-12T08:02:24.791Z,100062.63
2023-04-12T08:04:53.237Z,100062.88
2023-04-12T08:07:22.318Z,100063.00
2023-04-12T08:09:51.120Z,100055.97
2023-04-12T08:12:21.342Z,100056.75
2023-04-12T08:14:49.395Z,100052.41
2023-04-12T08:17:17.890Z,100053.56
2023-04-12T08:19:46.445Z,100041.25
2023-04-12T08:22:14.649Z,100054.63
2023-04-12T08:24:42.694Z,100042.31
2023-04-12T08:27:13.940Z,100041.72
2023-04-12T08:29:43.517Z,100042.56
2023-04-12T08:32:12.808Z,100044.69
2023-04-12T08:34:42.391Z,100040.34
2023-04-12T08:37:11.801Z,100037.78
2023-04-12T08:39:40.212Z,100049.72
2023-04-12T08:42:08.341Z,100041.44
2023-04-12T08:44:38.014Z,100034.44
2023-04-12T08:47:08.333Z,100028.00
2023-04-12T08:49:36.575Z,100033.66
2023-04-12T08:52:06.785Z,100024.41
2023-04-12T08:54:35.422Z,100023.59
2023-04-12T08:57:05.006Z,100012.63
2023-04-12T08:59:33.607Z,100017.28
2023-04-12T09:02:01.933Z,100016.03
2023-04-12T09:04:31.636Z,100016.22
2023-04-12T09:06:59.969Z,100006.56
2023-04-12T09:09:43.988Z,100019.03
2023-04-12T09:12:12.741Z,99997.88
2023-04-12T09:14:43.777Z,99988.72
2023-04-12T09:17:24.779Z,99991.13
2023-04-12T09:19:56.076Z,99999.56
2023-04-12T09:22:34.615Z,99997.75
2023-04-12T09:25:02.970Z,99986.59
2023-04-12T09:27:31.109Z,99995.41
2023-04-12T09:30:08.526Z,99991.47
2023-04-12T09:32:36.690Z,99990.63
2023-04-12T09:35:06.728Z,99980.03
2023-04-12T09:37:34.843Z,99976.91
2023-04-12T09:40:04.627Z,99985.63
2023-04-12T09:42:34.907Z,99972.69
2023-04-12T09:45:19.780Z,99972.59
2023-04-12T09:47:48.163Z,99975.13
2023-04-12T09:50:23.121Z,99971.31
2023-04-12T09:52:51.423Z,99969.56
2023-04-12T09:55:19.686Z,99963.91
2023-04-12T09:57:48.202Z,99961.16
2023-04-12T10:00:18.522Z,99967.13
2023-04-12T10:02:48.263Z,99963.38
2023-04-12T10:05:18.371Z,99966.94
2023-04-12T10:07:48.563Z,99961.63
2023-04-12T10:10:18.148Z,99956.56
2023-04-12T10:12:47.916Z,99969.25
2023-04-12T10:15:18.117Z,99961.84
2023-04-12T10:17:48.064Z,99959.47
2023-04-12T10:20:17.195Z,99958.91
2023-04-12T10:22:46.158Z,99950.56
2023-04-12T10:25:16.136Z,99943.97
2023-04-12T10:27:44.817Z,99941.91
2023-04-12T10:30:23.489Z,99932.44
2023-04-12T10:33:12.758Z,99933.06
2023-04-12T10:35:52.098Z,99924.59
2023-04-12T10:38:20.498Z,99930.41
2023-04-12T10:41:06.920Z,99928.38
2023-04-12T10:43:36.591Z,99934.56
2023-04-12T10:46:06.875Z,99930.75
2023-04-12T10:48:35.926Z,99921.56
2023-04-12T10:51:14.174Z,99926.72
2023-04-12T10:53:42.561Z,99920.81
2023-04-12T10:56:37.708Z,99917.72
2023-04-12T10:59:08.005Z,99909.75
2023-04-12T11:01:42.397Z,99905.13
2023-04-12T11:04:12.674Z,99900.09
2023-04-12T11:06:45.131Z,99892.09
2023-04-12T11:09:39.067Z,99883.63
2023-04-12T11:12:14.273Z,99877.72
2023-04-12T11:14:48.041Z,99869.25
2023-04-12T11:17:23.234Z,99862.63
2023-04-12T11:19:56.438Z,99859.13
2023-04-12T11:22:25.547Z,99860.00
2023-04-12T11:24:54.447Z,99848.03
2023-04-12T11:27:23.264Z,99848.78
2023-04-12T11:29:54.580Z,99844.00
2023-04-12T11:32:25.839Z,99853.47
2023-04-12T11:35:27.486Z,99843.84
2023-04-12T11:37:57.487Z,99847.63
2023-04-12T11:40:27.156Z,99846.31
2023-04-12T11:42:57.855Z,99852.69
2023-04-12T11:45:29.544Z,99856.66
2023-04-12T11:47:58.346Z,99845.41
2023-04-12T11:50:29.784Z,99851.84
2023-04-12T11:53:10.219Z,99843.03
2023-04-12T11:55:38.287Z,99839.81
2023-04-12T11:58:06.527Z,99835.28
2023-04-12T12:00:36.422Z,99846.50
2023-04-12T12:03:08.385Z,99840.84
2023-04-12T12:05:38.581Z,99849.31
2023-04-12T12:08:08.008Z,99839.16
2023-04-12T12:10:51.959Z,99850.34
2023-04-12T12:13:25.258Z,99834.22
2023-04-12T12:15:54.936Z,99832.97
2023-04-12T12:18:26.645Z,99841.38
2023-04-12T12:20:55.942Z,99825.78
2023-04-12T12:23:31.236Z,99816.66
2023-04-12T12:26:14.333Z,99825.38
2023-04-12T12:28:50.281Z,99820.19
2023-04-12T12:31:21.550Z,99817.19
2023-04-12T12:33:49.938Z,99807.09
2023-04-12T12:36:19.809Z,99815.22
2023-04-12T12:38:49.299Z,99813.13
2023-04-12T12:41:18.555Z,99810.38
2023-04-12T12:43:47.403Z,99808.16
2023-04-12T12:46:15.763Z,99810.38
2023-04-12T12:48:45.428Z,99796.94
2023-04-12T12:51:14.329Z,99805.31
2023-04-12T12:53:42.491Z,99799.03
2023-04-12T12:56:11.305Z,99803.44
2023-04-12T12:58:40.982Z,99794.16
2023-04-12T13:01:10.213Z,99800.06
2023-04-12T13:03:38.492Z,99798.16
2023-04-12T13:06:08.865Z,99788.22
2023-04-12T13:08:37.331Z,99779.72
2023-04-12T13:11:05.797Z,99785.81
2023-04-12T13:13:33.878Z,99786.94
2023-04-12T13:16:02.114Z,99785.88
2023-04-12T13:18:30.198Z,99786.72
2023-04-12T13:20:58.296Z,99773.50
2023-04-12T13:23:27.857Z,99769.94
2023-04-12T13:25:55.926Z,99770.19
2023-04-12T13:28:23.907Z,99779.53
2023-04-12T13:30:52.013Z,99778.13
2023-04-12T13:33:22.168Z,99781.19
2023-04-12T13:35:50.931Z,99772.94
2023-04-12T13:38:19.083Z,99778.16
2023-04-12T13:40:48.613Z,99770.47
2023-04-12T13:43:17.074Z,99768.84
2023-04-12T13:45:45.478Z,99775.94
2023-04-12T13:48:13.658Z,99768.25
2023-04-12T13:50:41.800Z,99760.53
2023-04-12T13:53:09.902Z,99760.81
2023-04-12T13:55:37.939Z,99759.97
2023-04-12T13:58:07.405Z,99756.84
2023-04-12T14:00:35.560Z,99765.03
2023-04-12T14:03:03.945Z,99765.47
2023-04-12T14:05:32.118Z,99759.69
2023-04-12T14:08:00.190Z,99762.97
2023-04-12T14:10:28.282Z,99763.72
2023-04-12T14:12:56.356Z,99762.16
2023-04-12T14:15:25.946Z,99756.63
2023-04-12T14:17:54.327Z,99760.41
2023-04-12T14:20:24.056Z,99749.75
2023-04-12T14:22:52.258Z,99758.00
2023-04-12T14:25:21.426Z,99763.53
2023-04-12T14:27:49.561Z,99755.69
2023-04-12T14:30:19.046Z,99765.91
2023-04-12T14:32:49.586Z,99769.09
2023-04-12T14:35:18.506Z,99759.75
2023-04-12T14:37:47.763Z,99759.75
2023-04-12T14:40:17.634Z,99761.69
2023-04-12T14:42:45.745Z,99764.13
2023-04-12T14:45:14.919Z,99752.81
2023-04-12T14:47:43.091Z,99758.22
2023-04-12T14:50:12.816Z,99751.81
2023-04-12T14:52:40.898Z,99750.63
2023-04-12T14:55:10.730Z,99756.63
2023-04-12T14:57:40.046Z,99753.06
2023-04-12T15:00:13.512Z,99752.72
2023-04-12T15:02:42.616Z,99746.88
2023-04-12T15:05:12.345Z,99744.56
2023-04-12T15:07:41.204Z,99745.63
2023-04-12T15:10:09.877Z,99743.75
2023-04-12T15:12:38.091Z,99746.03
2023-04-12T15:15:06.981Z,99748.13
2023-04-12T15:17:35.853Z,99747.53
2023-04-12T15:20:09.172Z,99745.28
2023-04-12T15:22:38.727Z,99743.56
2023-04-12T15:25:07.763Z,99743.34
2023-04-12T15:27:35.870Z,99742.81
2023-04-12T15:30:05.148Z,99751.53
2023-04-12T15:32:36.556Z,99740.84
2023-04-12T15:35:15.071Z,99741.28
2023-04-12T15:37:52.651Z,99732.53
2023-04-12T15:40:22.944Z,99730.03
2023-04-12T15:42:51.172Z,99720.66
2023-04-12T15:45:19.281Z,99725.50
2023-04-12T15:47:47.567Z,99726.53
2023-04-12T15:50:15.689Z,99726.03
2023-04-12T15:52:44.388Z,99722.03
2023-04-12T15:55:17.084Z,99722.03
2023-04-12T15:57:45.460Z,99718.91
2023-04-12T16:00:23.994Z,99721.03
2023-04-12T16:02:56.313Z,99724.03
2023-04-12T16:05:26.885Z,99723.16
2023-04-12T16:07:56.887Z,99719.03
2023-04-12T16:10:27.089Z,99728.28
2023-04-12T16:12:56.568Z,99732.69
2023-04-12T16:15:24.734Z,99722.34
2023-04-12T16:17:54.690Z,99720.94
2023-04-12T16:20:23.427Z,99732.94
2023-04-12T16:22:54.301Z,99727.72
2023-04-12T16:25:22.752Z,99722.81
2023-04-12T16:27:52.377Z,99724.50
2023-04-12T16:30:22.567Z,99728.56
2023-04-12T16:32:52.268Z,99726.09
2023-04-12T16:35:20.514Z,99730.47
2023-04-12T16:37:48.883Z,99726.09
2023-04-12T16:40:17.398Z,99721.94
2023-04-12T16:42:45.962Z,99728.72
2023-04-12T16:45:15.939Z,99724.03
2023-04-12T16:47:44.114Z,99736.28
2023-04-12T16:50:13.648Z,99731.31
2023-04-12T16:52:42.075Z,99734.31
2023-04-12T16:55:11.595Z,99729.38
2023-04-12T16:57:41.299Z,99736.22
2023-04-12T17:00:20.697Z,99735.91
2023-04-12T17:02:51.625Z,99733.19
2023-04-12T17:05:20.555Z,99731.00
2023-04-12T17:07:49.921Z,99733.75
2023-04-12T17:10:18.533Z,99742.75
2023-04-12T17:12:46.911Z,99737.56
2023-04-12T17:15:16.596Z,99740.28
2023-04-12T17:17:44.851Z,99744.94
2023-04-12T17:20:14.809Z,99747.84
2023-04-12T17:22:43.030Z,99750.25
2023-04-12T17:25:11.862Z,99754.28
2023-04-12T17:27:41.119Z,99757.78
2023-04-12T17:30:10.836Z,99755.31
2023-04-12T17:32:39.402Z,99755.22
2023-04-12T17:35:08.060Z,99766.41
2023-04-12T17:37:38.365Z,99761.59
2023-04-12T17:40:07.199Z,99767.22
2023-04-12T17:42:35.474Z,99767.16
2023-04-12T17:45:03.658Z,99772.03
2023-04-12T17:47:33.971Z,99767.31
2023-04-12T17:50:02.651Z,99771.03
2023-04-12T17:52:32.181Z,99771.53
2023-04-12T17:55:01.781Z,99771.16
2023-04-12T17:57:31.475Z,99773.88
2023-04-12T17:59:59.614Z,99771.41
2023-04-12T18:02:28.044Z,99772.47
2023-04-12T18:04:56.344Z,99777.38
2023-04-12T18:07:24.581Z,99782.50
2023-04-12T18:09:52.760Z,99775.06
2023-04-12T18:12:22.508Z,99765.94
2023-04-12T18:14:51.002Z,99775.19
2023-04-12T18:17:19.076Z,99769.41
2023-04-12T18:19:47.274Z,99770.47
2023-04-12T18:22:15.349Z,99771.81
2023-04-12T18:24:43.621Z,99775.84
2023-04-12T18:27:11.688Z,99777.97
2023-04-12T18:29:41.143Z,99778.22
2023-04-12T18:32:09.213Z,99775.97
2023-04-12T18:34:40.188Z,99777.28
2023-04-12T18:37:08.462Z,99774.81
2023-04-12T18:39:36.844Z,99777.81
2023-04-12T18:42:05.097Z,99774.75
2023-04-12T18:44:34.441Z,99780.41
2023-04-12T18:47:03.982Z,99786.34
2023-04-12T18:49:32.113Z,99783.28
2023-04-12T18:52:00.251Z,99786.50
2023-04-12T18:54:29.179Z,99781.78
2023-04-12T18:57:01.002Z,99797.44
2023-04-12T18:59:29.036Z,99788.59
2023-04-12T19:01:57.206Z,99798.06
2023-04-12T19:04:27.462Z,99786.00
2023-04-12T19:06:57.182Z,99788.16
2023-04-12T19:09:25.372Z,99781.03
2023-04-12T19:11:55.570Z,99778.56
2023-04-12T19:14:23.912Z,99780.44
2023-04-12T19:16:53.141Z,99777.38
2023-04-12T19:19:21.441Z,99775.13
2023-04-12T19:21:50.843Z,99772.59
2023-04-12T19:24:18.910Z,99769.31
2023-04-12T19:26:48.207Z,99769.31
2023-04-12T19:29:16.287Z,99771.44
2023-04-12T19:31:47.342Z,99772.50
2023-04-12T19:34:18.076Z,99765.06
2023-04-12T19:36:46.273Z,99767.44
2023-04-12T19:39:15.844Z,99762.69
2023-04-12T19:41:43.947Z,99762.25
2023-04-12T19:44:12.122Z,99765.69
2023-04-12T19:46:40.412Z,99761.44
2023-04-12T19:49:09.570Z,99755.41
2023-04-12T19:51:37.886Z,99759.66
2023-04-12T19:54:06.036Z,99763.59
2023-04-12T19:56:35.472Z,99757.78
2023-04-12T19:59:05.678Z,99765.00
2023-04-12T20:01:35.968Z,99769.50
2023-04-12T20:04:05.701Z,99766.19
2023-04-12T20:06:33.975Z,99765.22
2023-04-12T20:09:02.127Z,99764.03
2023-04-12T20:11:30.838Z,99766.41
2023-04-12T20:14:00.461Z,99765.00
2023-04-12T20:16:28.652Z,99774.44
2023-04-12T20:18:59.027Z,99770.53
2023-04-12T20:21:27.943Z,99764.50
2023-04-12T20:23:56.187Z,99772.28
2023-04-12T20:26:27.530Z,99776.31
2023-04-12T20:28:56.233Z,99776.53
2023-04-12T20:31:26.146Z,99773.44
2023-04-12T20:33:54.960Z,99771.66
2023-04-12T20:36:23.157Z,99772.56
2023-04-12T20:38:52.575Z,99771.16
2023-04-12T20:41:21.116Z,99766.66
2023-04-12T20:43:49.394Z,99772.34
2023-04-12T20:46:19.360Z,99768.41
2023-04-12T20:48:50.906Z,99781.41
2023-04-12T20:51:21.058Z,99774.53
2023-04-12T20:53:51.241Z,99773.09
2023-04-12T20:56:19.990Z,99774.41
2023-04-12T20:58:49.829Z,99770.25
2023-04-12T21:01:18.872Z,99770.72
2023-04-12T21:03:49.228Z,99764.69
2023-04-12T21:06:18.036Z,99777.69
2023-04-12T21:08:47.484Z,99766.19
2023-04-12T21:11:16.500Z,99772.69
2023-04-12T21:13:44.743Z,99767.50
2023-04-12T21:16:16.247Z,99767.97
2023-04-12T21:18:44.831Z,99770.06
2023-04-12T21:21:14.233Z,99770.53
2023-04-12T21:23:42.959Z,99775.13
2023-04-12T21:26:11.092Z,99777.28
2023-04-12T21:28:39.845Z,99774.75
2023-04-12T21:31:08.292Z,99776.06
2023-04-12T21:33:37.014Z,99773.56
2023-04-12T21:36:05.334Z,99773.00
2023-04-12T21:38:34.862Z,99775.34
2023-04-12T21:41:06.356Z,99767.84
2023-04-12T21:43:34.551Z,99769.16
2023-04-12T21:46:02.758Z,99769.38
2023-04-12T21:48:31.031Z,99774.22
2023-04-12T21:50:59.098Z,99764.63
2023-04-12T21:53:27.449Z,99762.97
2023-04-12T21:55:56.955Z,99766.72
2023-04-12T21:58:25.056Z,99762.59
2023-04-12T22:00:53.798Z,99765.31
2023-04-12T22:03:22.263Z,99765.78
2023-04-12T22:06:03.740Z,99761.38
2023-04-12T22:08:34.304Z,99753.22
2023-04-12T22:11:04.239Z,99758.66
2023-04-12T22:13:32.295Z,99757.84
2023-04-12T22:16:00.847Z,99758.91
2023-04-12T22:18:29.726Z,99754.28
2023-04-12T22:20:57.987Z,99751.81
2023-04-12T22:23:26.300Z,99757.25
2023-04-12T22:25:58.510Z,99757.47
2023-04-12T22:28:28.079Z,99752.03
2023-04-12T22:30:57.237Z,99749.56
2023-04-12T22:33:25.530Z,99746.22
2023-04-12T22:35:53.883Z,99750.00
2023-04-12T22:38:22.043Z,99754.63
2023-04-12T22:40:51.182Z,99745.81
2023-04-12T22:43:21.015Z,99743.34
2023-04-12T22:45:54.051Z,99747.34
2023-04-12T22:48:25.064Z,99745.69
2023-04-12T22:50:54.624Z,99754.03
2023-04-12T22:53:22.687Z,99752.63
2023-04-12T22:55:50.888Z,99746.81
2023-04-12T22:58:19.813Z,99741.84
2023-04-12T23:00:50.764Z,99743.13
2023-04-12T23:03:20.909Z,99747.09
2023-04-12T23:05:49.272Z,99750.25
2023-04-12T23:08:18.014Z,99757.19
2023-04-12T23:10:46.299Z,99743.69
2023-04-12T23:13:14.592Z,99745.44
2023-04-12T23:15:43.080Z,99749.06
2023-04-12T23:18:11.396Z,99748.91
2023-04-12T23:20:41.111Z,99743.53
2023-04-12T23:23:10.083Z,99741.50
2023-04-12T23:25:41.713Z,99739.25
2023-04-12T23:28:13.279Z,99745.53
2023-04-12T23:30:43.776Z,99738.91
2023-04-12T23:33:12.506Z,99743.94
2023-04-12T23:35:42.574Z,99744.63
2023-04-12T23:38:15.677Z,99739.63
2023-04-12T23:40:44.436Z,99739.84
2023-04-12T23:43:12.862Z,99738.44
2023-04-12T23:45:41.053Z,99745.94
2023-04-12T23:48:09.136Z,99737.41
2023-04-12T23:50:37.257Z,99739.75
2023-04-12T23:53:07.225Z,99738.28
2023-04-12T23:55:35.239Z,99738.28
2023-04-12T23:58:03.312Z,99735.81
